Time;durP1;ratioP1;P1;durP2;ratioP2;P2;SDS_P1;SDS_P2;PMS_P1;PMS_P2;Temp;Humidity;BMP_temperature;BMP_pressure;BME280_temperature;BME280_humidity;BME280_pressure;Samples;Min_cycle;Max_cycle;Signal;HPM_P1;HPM_P2
2021/09/27 00:00:23;;;;;;;6.25;5.57;;;18.10;85.70;;;;;;4864821;29;20040;-66
2021/09/27 00:02:49;;;;;;;6.07;5.47;;;18.00;86.00;;;;;;4862619;29;20096;-66
2021/09/27 00:05:17;;;;;;;9.27;5.63;;;18.10;85.90;;;;;;4860973;29;20029;-67
2021/09/27 00:07:44;;;;;;;6.97;5.60;;;18.10;86.60;;;;;;4872076;29;20784;-67
2021/09/27 00:10:13;;;;;;;6.32;5.68;;;18.00;86.10;;;;;;4856343;29;20321;-67
2021/09/27 00:12:40;;;;;;;7.85;5.63;;;18.00;86.10;;;;;;4855055;29;20393;-66
2021/09/27 00:15:09;;;;;;;5.65;5.05;;;18.00;86.30;;;;;;4864146;29;20047;-66
2021/09/27 00:17:35;;;;;;;6.97;5.70;;;18.00;86.40;;;;;;4863855;29;20074;-66
2021/09/27 00:20:01;;;;;;;6.57;5.70;;;18.00;86.40;;;;;;4865718;29;20044;-67
2021/09/27 00:22:27;;;;;;;8.70;5.82;;;18.00;86.40;;;;;;4862565;29;20224;-67
2021/09/27 00:24:53;;;;;;;6.90;6.13;;;18.00;86.50;;;;;;4863531;29;20516;-67
2021/09/27 00:27:19;;;;;;;6.90;5.35;;;18.00;86.50;;;;;;4872459;29;20958;-67
2021/09/27 00:29:44;;;;;;;7.25;5.15;;;18.10;86.50;;;;;;4857245;29;20069;-66
2021/09/27 00:32:10;;;;;;;6.68;5.25;;;18.00;86.40;;;;;;4854641;29;20770;-66
2021/09/27 00:34:35;;;;;;;6.68;5.45;;;18.00;86.30;;;;;;4853281;29;20626;-67
2021/09/27 00:37:01;;;;;;;6.07;5.32;;;18.00;86.40;;;;;;4854074;29;20459;-67
2021/09/27 00:39:27;;;;;;;6.85;5.57;;;18.00;86.40;;;;;;4865863;29;20053;-66
2021/09/27 00:41:53;;;;;;;7.05;5.57;;;18.00;86.40;;;;;;4862834;29;20047;-67
2021/09/27 00:44:19;;;;;;;7.22;5.70;;;18.00;86.40;;;;;;4862183;29;20033;-67
2021/09/27 00:46:45;;;;;;;10.98;6.65;;;18.00;86.60;;;;;;4859833;29;20040;-67
2021/09/27 00:49:10;;;;;;;7.25;6.40;;;17.80;86.90;;;;;;4857196;29;20120;-66
2021/09/27 00:51:41;;;;;;;6.70;6.00;;;17.80;86.90;;;;;;4855141;29;20489;-66
2021/09/27 00:54:12;;;;;;;8.15;6.30;;;17.80;87.20;;;;;;4853410;29;20041;-66
2021/09/27 00:56:46;;;;;;;6.13;5.50;;;17.80;87.20;;;;;;4850534;29;20193;-66
2021/09/27 00:59:12;;;;;;;7.72;6.47;;;17.80;87.20;;;;;;4851445;29;20041;-67
2021/09/27 01:01:38;;;;;;;7.43;6.00;;;17.80;87.10;;;;;;4863537;29;20074;-67
2021/09/27 01:04:04;;;;;;;6.80;5.80;;;17.80;87.10;;;;;;4851171;29;20036;-67
2021/09/27 01:06:39;;;;;;;6.70;6.00;;;17.80;87.30;;;;;;4867956;29;20094;-67
2021/09/27 01:09:11;;;;;;;8.25;6.38;;;17.80;87.50;;;;;;4862890;29;20119;-67
2021/09/27 01:12:10;;;;;;;7.43;6.20;;;17.70;87.70;;;;;;4872529;29;20082;-67
2021/09/27 01:15:07;;;;;;;12.82;6.65;;;17.70;87.70;;;;;;4860762;29;20842;-66
2021/09/27 01:18:07;;;;;;;7.72;6.10;;;17.70;87.90;;;;;;4864085;29;20541;-67
2021/09/27 01:20:46;;;;;;;9.75;6.68;;;17.70;87.60;;;;;;4863965;29;20057;-67
2021/09/27 01:23:39;;;;;;;9.85;6.80;;;17.60;88.00;;;;;;4864525;29;20083;-67
2021/09/27 01:26:29;;;;;;;7.30;6.07;;;17.60;88.00;;;;;;4861331;29;20045;-67
2021/09/27 01:29:09;;;;;;;8.80;6.78;;;17.60;87.90;;;;;;4863232;29;20044;-67
2021/09/27 01:32:12;;;;;;;9.27;6.85;;;17.60;87.90;;;;;;4856756;29;20112;-67
2021/09/27 01:34:43;;;;;;;9.38;6.88;;;17.60;88.10;;;;;;4859651;29;20037;-67
2021/09/27 01:37:09;;;;;;;7.68;6.80;;;17.60;88.40;;;;;;4860436;29;20048;-66
2021/09/27 01:40:03;;;;;;;6.78;6.07;;;17.50;88.40;;;;;;4863997;29;20037;-67
2021/09/27 01:43:03;;;;;;;7.75;6.60;;;17.50;88.80;;;;;;4879502;29;20565;-67
2021/09/27 01:45:57;;;;;;;8.57;7.18;;;17.60;88.80;;;;;;4859652;29;20049;-66
2021/09/27 01:48:29;;;;;;;8.77;6.75;;;17.60;88.50;;;;;;4843725;29;20081;-66
2021/09/27 01:51:13;;;;;;;8.13;6.88;;;17.60;89.00;;;;;;4871889;29;20045;-66
2021/09/27 01:53:55;;;;;;;9.30;6.50;;;17.60;88.20;;;;;;4857646;29;20037;-66
2021/09/27 01:56:49;;;;;;;7.95;6.68;;;17.60;88.50;;;;;;4852310;29;20040;-67
2021/09/27 01:59:35;;;;;;;7.88;6.97;;;17.60;88.80;;;;;;4850242;29;20690;-66
2021/09/27 02:02:21;;;;;;;8.93;6.90;;;17.70;88.80;;;;;;4863027;29;20514;-66
2021/09/27 02:05:21;;;;;;;8.50;6.78;;;17.70;88.50;;;;;;4864083;29;20037;-66
2021/09/27 02:08:09;;;;;;;11.05;6.80;;;17.80;88.40;;;;;;4872762;29;20048;-66
2021/09/27 02:10:51;;;;;;;11.05;7.32;;;17.80;88.30;;;;;;4860997;29;20088;-67
2021/09/27 02:13:26;;;;;;;10.15;7.10;;;17.80;88.20;;;;;;4861882;29;20737;-67
2021/09/27 02:16:23;;;;;;;7.95;6.70;;;17.80;88.00;;;;;;4859565;29;20034;-67
2021/09/27 02:18:53;;;;;;;8.93;6.78;;;17.80;88.00;;;;;;4859488;29;20041;-67
2021/09/27 02:21:30;;;;;;;9.65;6.78;;;17.80;87.80;;;;;;4866065;29;20504;-67
2021/09/27 02:24:08;;;;;;;8.30;7.30;;;17.80;88.00;;;;;;4869085;29;20040;-67
2021/09/27 02:26:34;;;;;;;10.43;7.32;;;17.80;87.80;;;;;;4866701;29;20045;-67
2021/09/27 02:29:00;;;;;;;10.77;7.97;;;17.80;87.90;;;;;;4864175;29;20037;-66
2021/09/27 02:31:53;;;;;;;8.48;7.25;;;17.90;88.10;;;;;;4862271;29;20600;-67
2021/09/27 02:34:44;;;;;;;8.25;7.18;;;17.90;88.00;;;;;;4867708;29;20137;-66
2021/09/27 02:37:26;;;;;;;7.57;6.75;;;17.90;88.00;;;;;;4861998;29;20037;-66
2021/09/27 02:40:02;;;;;;;8.63;6.75;;;17.90;88.10;;;;;;4854281;29;20058;-66
2021/09/27 02:42:52;;;;;;;8.40;6.80;;;17.80;88.30;;;;;;4867355;29;20873;-66
2021/09/27 02:45:19;;;;;;;8.35;7.30;;;17.80;88.30;;;;;;4868497;29;20443;-67
2021/09/27 02:47:50;;;;;;;8.45;6.95;;;17.90;88.30;;;;;;4865277;29;20044;-67
2021/09/27 02:50:22;;;;;;;9.23;7.50;;;17.90;87.90;;;;;;4854426;29;20819;-67
2021/09/27 02:52:48;;;;;;;7.72;6.93;;;18.00;87.70;;;;;;4857743;29;20411;-67
2021/09/27 02:55:20;;;;;;;7.55;6.78;;;18.00;87.60;;;;;;4858873;29;20045;-67
2021/09/27 02:58:04;;;;;;;8.50;6.93;;;18.10;87.40;;;;;;4861659;29;20093;-67
2021/09/27 03:00:45;;;;;;;7.95;7.05;;;18.00;87.30;;;;;;4865795;29;20222;-67
2021/09/27 03:03:25;;;;;;;7.22;6.50;;;18.00;87.50;;;;;;4866590;29;20033;-66
2021/09/27 03:06:18;;;;;;;7.60;6.80;;;18.00;87.50;;;;;;4868000;29;20069;-67
2021/09/27 03:08:56;;;;;;;8.45;6.78;;;18.10;87.60;;;;;;4852512;29;20037;-66
2021/09/27 03:11:37;;;;;;;8.20;7.13;;;18.10;87.30;;;;;;4854739;29;20127;-66
2021/09/27 03:14:26;;;;;;;9.50;7.55;;;18.10;87.20;;;;;;4860938;29;20044;-67
2021/09/27 03:17:09;;;;;;;10.15;7.03;;;18.10;86.80;;;;;;4857541;29;20048;-67
2021/09/27 03:19:47;;;;;;;7.43;6.60;;;18.10;87.00;;;;;;4855600;29;20045;-66
2021/09/27 03:22:33;;;;;;;7.93;6.70;;;18.00;86.90;;;;;;4863514;29;20071;-67
2021/09/27 03:25:20;;;;;;;7.50;6.30;;;18.00;87.10;;;;;;4850361;29;20475;-67
2021/09/27 03:28:18;;;;;;;9.80;6.78;;;18.00;87.30;;;;;;4866620;29;20041;-67
2021/09/27 03:31:12;;;;;;;8.73;7.55;;;17.90;87.60;;;;;;4863682;29;20080;-67
2021/09/27 03:33:43;;;;;;;8.07;7.07;;;17.80;88.50;;;;;;4861466;29;20074;-67
2021/09/27 03:36:18;;;;;;;8.68;7.28;;;17.80;88.00;;;;;;4859182;29;20044;-67
2021/09/27 03:39:07;;;;;;;8.40;6.88;;;17.80;88.10;;;;;;4874505;29;20944;-67
2021/09/27 03:41:54;;;;;;;8.65;7.15;;;17.80;88.00;;;;;;4854062;29;20045;-67
2021/09/27 03:44:45;;;;;;;10.23;7.38;;;17.70;88.30;;;;;;4852199;29;20041;-67
2021/09/27 03:47:22;;;;;;;10.77;7.80;;;17.70;88.40;;;;;;4865760;29;20561;-68
2021/09/27 03:50:08;;;;;;;9.80;7.60;;;17.70;88.60;;;;;;4853551;29;20548;-67
2021/09/27 03:52:42;;;;;;;7.97;7.18;;;17.70;88.70;;;;;;4854072;29;20036;-68
2021/09/27 03:55:11;;;;;;;11.93;7.00;;;17.70;88.80;;;;;;4874250;29;20048;-68
2021/09/27 03:58:05;;;;;;;9.95;8.13;;;17.70;88.80;;;;;;4858299;29;20048;-68
2021/09/27 04:01:12;;;;;;;8.77;7.65;;;17.70;88.90;;;;;;4861001;29;20472;-68
2021/09/27 04:04:00;;;;;;;7.60;6.80;;;17.60;89.10;;;;;;4865171;29;20045;-68
2021/09/27 04:07:14;;;;;;;8.93;7.90;;;17.60;88.90;;;;;;4849994;29;20741;-68
2021/09/27 04:09:57;;;;;;;12.35;7.07;;;17.60;89.20;;;;;;4838813;29;20052;-68
2021/09/27 04:12:41;;;;;;;8.68;7.57;;;17.60;89.20;;;;;;4867990;29;20059;-68
2021/09/27 04:15:33;;;;;;;10.43;7.88;;;17.70;88.90;;;;;;4854938;29;20041;-68
2021/09/27 04:18:10;;;;;;;10.98;8.18;;;17.60;89.10;;;;;;4856826;29;20853;-68
2021/09/27 04:20:48;;;;;;;12.68;7.85;;;17.60;89.00;;;;;;4865131;29;20418;-68
2021/09/27 04:23:44;;;;;;;9.68;7.82;;;17.60;89.20;;;;;;4861732;29;20025;-67
2021/09/27 04:26:57;;;;;;;10.43;6.97;;;17.60;89.40;;;;;;4860898;29;20043;-68
2021/09/27 04:29:50;;;;;;;8.85;7.50;;;17.60;89.50;;;;;;4856938;29;20056;-67
2021/09/27 04:32:38;;;;;;;10.20;7.93;;;17.60;89.80;;;;;;4877191;29;20452;-68
2021/09/27 04:35:18;;;;;;;8.07;7.20;;;17.70;89.60;;;;;;4861570;29;20574;-68
2021/09/27 04:37:45;;;;;;;9.27;7.68;;;17.70;89.20;;;;;;4863134;29;20047;-69
2021/09/27 04:40:13;;;;;;;8.23;7.30;;;17.80;89.50;;;;;;4866600;29;20041;-69
2021/09/27 04:43:05;;;;;;;8.93;7.57;;;17.90;88.90;;;;;;4860041;29;20078;-69
2021/09/27 04:45:42;;;;;;;10.02;7.97;;;17.90;88.50;;;;;;4857779;29;20056;-69
2021/09/27 04:48:26;;;;;;;7.60;6.80;;;17.90;88.60;;;;;;4856125;29;20034;-69
2021/09/27 04:51:24;;;;;;;7.78;6.97;;;17.90;88.70;;;;;;4862916;29;20041;-69
2021/09/27 04:54:19;;;;;;;8.73;7.28;;;18.00;88.60;;;;;;4858783;29;20289;-69
2021/09/27 04:56:54;;;;;;;8.77;7.25;;;17.90;88.80;;;;;;4863242;29;20057;-68
2021/09/27 04:59:44;;;;;;;7.95;7.15;;;17.90;88.80;;;;;;4864843;29;20505;-69
2021/09/27 05:02:29;;;;;;;9.15;6.80;;;17.90;88.90;;;;;;4864594;29;20180;-69
2021/09/27 05:05:32;;;;;;;9.00;7.47;;;17.90;89.40;;;;;;4862668;29;20029;-68
2021/09/27 05:08:35;;;;;;;10.30;7.35;;;17.70;90.10;;;;;;4856282;29;20077;-68
2021/09/27 05:11:19;;;;;;;8.38;7.50;;;17.80;90.10;;;;;;4863653;29;20048;-68
2021/09/27 05:14:10;;;;;;;8.93;7.60;;;17.80;90.30;;;;;;4851788;29;20033;-68
2021/09/27 05:16:50;;;;;;;11.27;7.90;;;17.80;90.30;;;;;;4864903;29;20051;-68
2021/09/27 05:19:22;;;;;;;9.77;7.82;;;17.80;90.30;;;;;;4859427;29;20088;-68
2021/09/27 05:22:30;;;;;;;10.43;8.63;;;17.80;90.30;;;;;;4868115;29;20494;-68
2021/09/27 05:25:25;;;;;;;9.25;7.55;;;17.90;90.60;;;;;;4860664;29;20029;-68
2021/09/27 05:28:15;;;;;;;9.55;8.07;;;17.90;90.40;;;;;;4867335;29;20743;-70
2021/09/27 05:30:43;;;;;;;8.80;7.80;;;17.90;90.30;;;;;;4876133;29;20113;-68
2021/09/27 05:33:28;;;;;;;10.75;8.30;;;17.90;90.30;;;;;;4864116;29;20041;-68
2021/09/27 05:36:19;;;;;;;8.13;7.32;;;17.90;90.20;;;;;;4865128;29;20033;-69
2021/09/27 05:39:01;;;;;;;9.50;8.40;;;17.90;90.30;;;;;;4868079;29;20037;-68
2021/09/27 05:41:50;;;;;;;9.32;8.02;;;17.90;90.30;;;;;;4856402;29;20037;-68
2021/09/27 05:44:51;;;;;;;9.88;8.43;;;17.90;90.30;;;;;;4871535;29;20046;-69
2021/09/27 05:47:40;;;;;;;9.73;8.07;;;17.90;90.40;;;;;;4850908;29;20557;-71
2021/09/27 05:50:50;;;;;;;9.55;8.30;;;17.90;90.40;;;;;;4852107;29;20513;-69
2021/09/27 05:53:26;;;;;;;8.57;7.65;;;18.00;90.40;;;;;;4812055;29;20079;-70
2021/09/27 05:56:07;;;;;;;9.98;7.88;;;18.00;90.30;;;;;;4810429;29;20049;-69
2021/09/27 05:58:52;;;;;;;10.43;8.27;;;18.00;90.30;;;;;;4847277;29;20103;-68
2021/09/27 06:01:48;;;;;;;9.25;8.20;;;18.10;90.20;;;;;;4857415;29;20061;-69
2021/09/27 06:04:28;;;;;;;9.25;7.88;;;18.10;90.30;;;;;;4876176;29;20033;-68
2021/09/27 06:07:29;;;;;;;10.20;8.27;;;18.10;90.20;;;;;;4856055;29;20418;-68
2021/09/27 06:10:00;;;;;;;9.02;7.85;;;18.20;90.30;;;;;;4839270;29;20052;-68
2021/09/27 06:12:44;;;;;;;9.45;8.10;;;18.10;90.20;;;;;;4864537;29;20088;-72
2021/09/27 06:15:13;;;;;;;10.23;8.15;;;18.20;90.30;;;;;;4863882;29;20063;-71
2021/09/27 06:18:01;;;;;;;9.00;7.93;;;18.20;90.30;;;;;;4859195;29;20037;-71
2021/09/27 06:20:40;;;;;;;10.25;8.15;;;18.30;90.20;;;;;;4859863;29;20040;-70
2021/09/27 06:23:37;;;;;;;10.05;7.63;;;18.30;90.20;;;;;;4860028;29;20064;-70
2021/09/27 06:26:10;;;;;;;;;;;18.30;90.20;;;;;;4859857;29;20027;-70
2021/09/27 06:28:47;;;;;;;10.00;8.45;;;18.30;90.30;;;;;;4851065;29;19916;-70
2021/09/27 06:31:49;;;;;;;9.88;8.32;;;18.30;90.00;;;;;;4855395;29;20034;-70
2021/09/27 06:34:39;;;;;;;9.52;8.40;;;18.30;90.10;;;;;;4858900;29;20136;-70
2021/09/27 06:37:05;;;;;;;9.90;8.68;;;18.40;90.00;;;;;;4861617;29;20139;-70
2021/09/27 06:39:32;;;;;;;11.88;8.95;;;18.40;89.90;;;;;;4861441;29;20640;-70
2021/09/27 06:41:58;;;;;;;9.35;8.35;;;18.40;89.70;;;;;;4857816;29;20045;-70
2021/09/27 06:44:24;;;;;;;11.43;8.25;;;18.40;89.90;;;;;;4862609;29;20044;-70
2021/09/27 06:46:52;;;;;;;9.75;8.57;;;18.50;90.00;;;;;;4852074;29;20045;-71
2021/09/27 06:49:18;;;;;;;10.13;8.52;;;18.60;89.50;;;;;;4863211;29;20341;-70
2021/09/27 06:51:44;;;;;;;10.65;9.55;;;18.60;89.60;;;;;;4859306;29;20047;-70
2021/09/27 06:54:14;;;;;;;12.55;10.13;;;18.70;89.60;;;;;;4864390;29;20041;-70
2021/09/27 06:56:41;;;;;;;10.70;9.43;;;18.80;89.60;;;;;;4865237;29;20136;-70
2021/09/27 06:59:07;;;;;;;10.52;9.35;;;18.90;89.80;;;;;;4856995;29;20099;-70
2021/09/27 07:01:33;;;;;;;11.88;9.02;;;19.00;88.90;;;;;;4860531;29;20096;-69
2021/09/27 07:03:59;;;;;;;10.02;8.82;;;19.10;88.70;;;;;;4860899;29;20038;-70
2021/09/27 07:06:25;;;;;;;10.25;7.70;;;19.20;88.20;;;;;;4857937;29;20076;-70
2021/09/27 07:08:51;;;;;;;10.23;8.27;;;19.20;88.10;;;;;;4855464;29;20426;-69
2021/09/27 07:11:17;;;;;;;8.68;7.50;;;19.30;87.80;;;;;;4864585;29;20564;-71
2021/09/27 07:13:44;;;;;;;8.52;7.55;;;19.30;87.50;;;;;;4866897;29;20044;-70
2021/09/27 07:16:10;;;;;;;8.77;7.88;;;19.30;87.50;;;;;;4866988;29;20037;-69
2021/09/27 07:18:36;;;;;;;10.05;7.90;;;19.30;87.60;;;;;;4868734;29;20040;-69
2021/09/27 07:21:05;;;;;;;10.57;8.02;;;19.40;87.70;;;;;;4867294;29;20042;-69
2021/09/27 07:23:35;;;;;;;9.23;7.82;;;19.50;87.50;;;;;;4864668;29;20482;-70
2021/09/27 07:26:01;;;;;;;9.45;7.90;;;19.50;87.00;;;;;;4879963;29;20036;-71
2021/09/27 07:28:27;;;;;;;8.05;7.13;;;19.50;86.80;;;;;;4866014;29;20043;-69
2021/09/27 07:30:53;;;;;;;8.43;7.47;;;19.60;86.80;;;;;;4863762;29;20045;-73
2021/09/27 07:33:19;;;;;;;8.45;7.30;;;19.60;86.60;;;;;;4864468;29;20040;-68
2021/09/27 07:35:45;;;;;;;9.70;6.85;;;19.60;86.60;;;;;;4856588;29;20037;-70
2021/09/27 07:38:11;;;;;;;7.68;6.88;;;19.70;86.80;;;;;;4866291;29;20037;-70
2021/09/27 07:40:38;;;;;;;8.80;7.90;;;19.70;86.50;;;;;;4853573;29;20033;-70
2021/09/27 07:43:06;;;;;;;9.15;7.88;;;19.80;86.50;;;;;;4861515;29;20676;-70
2021/09/27 07:45:35;;;;;;;8.80;7.60;;;19.80;86.20;;;;;;4866647;29;20025;-71
2021/09/27 07:48:09;;;;;;;8.38;7.13;;;19.80;85.40;;;;;;4857272;29;20033;-70
2021/09/27 07:50:35;;;;;;;9.07;7.28;;;19.80;85.60;;;;;;4868536;29;20041;-70
2021/09/27 07:53:01;;;;;;;9.40;7.45;;;19.80;85.70;;;;;;4864973;29;20048;-68
2021/09/27 07:55:27;;;;;;;9.52;7.10;;;19.80;85.80;;;;;;4856642;29;20037;-74
2021/09/27 07:57:53;;;;;;;10.07;7.68;;;19.80;85.40;;;;;;4858105;29;20464;-68
2021/09/27 08:00:19;;;;;;;7.68;6.88;;;19.90;85.40;;;;;;4865284;29;20049;-69
2021/09/27 08:02:46;;;;;;;9.13;7.55;;;19.90;85.40;;;;;;4863640;29;20132;-68
2021/09/27 08:05:18;;;;;;;8.77;6.93;;;20.00;84.90;;;;;;4867931;29;20040;-68
2021/09/27 08:07:44;;;;;;;7.45;6.32;;;20.00;84.80;;;;;;4878242;29;20041;-68
2021/09/27 08:10:10;;;;;;;8.70;6.95;;;20.00;84.70;;;;;;4859211;29;20047;-69
2021/09/27 08:12:37;;;;;;;8.98;6.80;;;20.00;84.70;;;;;;4867455;29;20045;-69
2021/09/27 08:15:10;;;;;;;6.95;6.22;;;20.00;85.20;;;;;;4857366;29;20446;-69
2021/09/27 08:17:36;;;;;;;8.20;6.95;;;20.00;84.80;;;;;;4865482;29;20081;-70
2021/09/27 08:20:05;;;;;;;8.07;6.35;;;20.00;84.90;;;;;;4870541;29;20700;-68
2021/09/27 08:22:31;;;;;;;8.35;7.35;;;20.00;85.20;;;;;;4861279;29;20112;-69
2021/09/27 08:24:57;;;;;;;7.75;6.47;;;20.00;85.60;;;;;;4864372;29;20040;-66
2021/09/27 08:27:23;;;;;;;7.70;6.88;;;20.00;86.10;;;;;;4858372;29;20034;-66
2021/09/27 08:29:49;;;;;;;7.93;6.93;;;20.10;86.40;;;;;;4860187;29;20499;-66
2021/09/27 08:32:14;;;;;;;7.57;6.60;;;20.10;85.80;;;;;;4862874;29;20037;-67
2021/09/27 08:34:43;;;;;;;7.88;6.97;;;20.20;85.40;;;;;;4869838;29;20041;-67
2021/09/27 08:37:10;;;;;;;6.63;5.95;;;20.20;85.30;;;;;;4859208;29;20189;-67
2021/09/27 08:39:37;;;;;;;8.18;6.53;;;20.30;84.80;;;;;;4866150;29;20025;-67
2021/09/27 08:42:15;;;;;;;9.48;6.80;;;20.30;84.80;;;;;;4865316;29;20033;-67
2021/09/27 08:45:08;;;;;;;7.32;6.63;;;20.30;84.60;;;;;;4858893;29;20143;-66
2021/09/27 08:47:46;;;;;;;7.72;6.93;;;20.40;84.20;;;;;;4876817;29;20073;-67
2021/09/27 08:50:42;;;;;;;7.70;6.45;;;20.40;84.00;;;;;;4858061;29;20049;-66
2021/09/27 08:53:19;;;;;;;7.32;6.13;;;20.50;84.40;;;;;;4861358;29;20044;-66
2021/09/27 08:55:45;;;;;;;10.43;7.10;;;20.50;84.80;;;;;;4863748;29;20044;-68
2021/09/27 08:58:14;;;;;;;8.93;7.00;;;20.40;84.30;;;;;;4865189;29;20442;-68
2021/09/27 09:00:49;;;;;;;8.15;6.85;;;20.40;84.10;;;;;;4857220;29;20041;-66
2021/09/27 09:03:53;;;;;;;8.23;7.20;;;20.40;84.30;;;;;;4869867;29;20037;-67
2021/09/27 09:06:45;;;;;;;7.72;6.40;;;20.30;85.40;;;;;;4860814;29;20069;-67
2021/09/27 09:09:13;;;;;;;7.53;6.72;;;20.20;86.70;;;;;;4857939;29;20036;-67
2021/09/27 09:11:51;;;;;;;8.02;6.65;;;20.00;87.70;;;;;;4855136;29;20131;-67
2021/09/27 09:14:37;;;;;;;8.52;6.65;;;19.90;88.60;;;;;;4875122;29;20052;-68
2021/09/27 09:17:16;;;;;;;8.23;7.13;;;19.80;89.50;;;;;;4866893;29;20485;-68
2021/09/27 09:19:42;;;;;;;8.32;7.13;;;19.80;89.80;;;;;;4865058;29;20033;-68
2021/09/27 09:22:37;;;;;;;9.40;7.85;;;19.80;90.00;;;;;;4865173;29;20029;-68
2021/09/27 09:25:07;;;;;;;9.07;7.45;;;19.80;90.30;;;;;;4863849;29;20044;-68
2021/09/27 09:27:33;;;;;;;9.85;7.80;;;19.80;90.40;;;;;;4863275;29;20037;-69
2021/09/27 09:29:59;;;;;;;10.38;7.70;;;19.70;90.30;;;;;;4861751;29;20039;-66
2021/09/27 09:32:31;;;;;;;9.82;7.75;;;19.70;90.40;;;;;;4856535;29;20044;-68
2021/09/27 09:35:19;;;;;;;9.40;7.57;;;19.70;90.60;;;;;;4863730;29;20726;-68
2021/09/27 09:37:55;;;;;;;9.23;8.23;;;19.70;90.70;;;;;;4867025;29;20041;-67
2021/09/27 09:40:41;;;;;;;9.07;8.15;;;19.80;91.00;;;;;;4859574;29;20045;-68
2021/09/27 09:43:13;;;;;;;9.38;8.43;;;19.80;91.00;;;;;;4868664;29;20536;-68
2021/09/27 09:45:46;;;;;;;9.48;8.02;;;19.90;91.10;;;;;;4860307;29;20119;-67
2021/09/27 09:48:11;;;;;;;11.43;9.00;;;20.00;91.10;;;;;;4873439;29;20854;-67
2021/09/27 09:50:37;;;;;;;11.35;9.23;;;20.10;91.10;;;;;;4860317;29;20033;-67
2021/09/27 09:53:20;;;;;;;10.15;8.27;;;20.20;90.90;;;;;;4856284;29;20053;-67
2021/09/27 09:55:57;;;;;;;11.13;8.73;;;20.30;90.80;;;;;;4859580;29;20037;-68
2021/09/27 09:58:34;;;;;;;11.98;8.50;;;20.40;90.40;;;;;;4850500;29;20093;-67
2021/09/27 10:01:22;;;;;;;10.95;8.50;;;20.60;90.40;;;;;;4864702;29;20048;-67
2021/09/27 10:03:59;;;;;;;10.45;9.15;;;20.70;90.20;;;;;;4855292;29;20151;-68
2021/09/27 10:06:47;;;;;;;10.80;7.85;;;20.90;89.80;;;;;;4856982;29;20056;-67
2021/09/27 10:09:27;;;;;;;9.32;8.32;;;20.90;89.50;;;;;;4852979;29;20044;-68
2021/09/27 10:12:32;;;;;;;10.43;8.32;;;21.00;89.40;;;;;;4862075;29;20156;-68
2021/09/27 10:14:58;;;;;;;8.57;7.68;;;21.00;89.30;;;;;;4873664;29;20049;-67
2021/09/27 10:17:38;;;;;;;10.32;8.13;;;21.00;88.70;;;;;;4859742;29;20094;-69
2021/09/27 10:20:30;;;;;;;9.23;7.60;;;21.00;88.40;;;;;;4862105;29;20863;-68
2021/09/27 10:22:59;;;;;;;9.02;7.20;;;21.00;88.70;;;;;;4863862;29;20085;-68
2021/09/27 10:25:24;;;;;;;8.52;7.60;;;21.20;88.00;;;;;;4860105;29;20037;-68
2021/09/27 10:27:51;;;;;;;8.75;7.80;;;21.20;88.50;;;;;;4862787;29;20049;-69
2021/09/27 10:30:24;;;;;;;9.15;8.23;;;21.30;88.60;;;;;;4859674;29;20120;-69
2021/09/27 10:32:57;;;;;;;11.48;8.10;;;21.30;88.30;;;;;;4860442;29;20038;-68
2021/09/27 10:35:30;;;;;;;8.85;7.22;;;21.40;88.00;;;;;;4865861;29;20048;-67
2021/09/27 10:38:10;;;;;;;10.90;7.22;;;21.40;86.60;;;;;;4867456;29;20045;-67
2021/09/27 10:40:39;;;;;;;9.23;7.30;;;21.30;86.20;;;;;;4867281;29;20828;-67
2021/09/27 10:43:11;;;;;;;9.52;7.50;;;21.30;86.60;;;;;;4868884;29;20088;-66
2021/09/27 10:45:40;;;;;;;9.02;7.15;;;21.20;87.10;;;;;;4882653;29;20041;-67
2021/09/27 10:48:07;;;;;;;9.50;7.82;;;21.20;87.50;;;;;;4864236;29;20037;-67
2021/09/27 10:50:56;;;;;;;8.98;7.75;;;21.20;87.40;;;;;;4855539;29;20037;-67
2021/09/27 10:53:51;;;;;;;8.65;7.25;;;21.20;87.40;;;;;;4862066;29;20534;-67
2021/09/27 10:56:40;;;;;;;7.90;7.05;;;21.20;87.60;;;;;;4865513;29;20831;-67
2021/09/27 10:59:11;;;;;;;8.88;7.20;;;21.30;87.30;;;;;;4864350;29;20036;-66
2021/09/27 11:01:42;;;;;;;9.27;7.85;;;21.30;86.80;;;;;;4866915;29;20159;-67
2021/09/27 11:04:19;;;;;;;9.52;7.50;;;21.40;87.40;;;;;;4863672;29;20049;-65
2021/09/27 11:07:01;;;;;;;7.95;6.85;;;21.50;85.30;;;;;;4857969;29;20030;-65
2021/09/27 11:09:34;;;;;;;7.75;6.63;;;21.40;85.40;;;;;;4863586;29;20109;-65
2021/09/27 11:12:15;;;;;;;8.43;7.57;;;21.40;85.20;;;;;;4863265;29;20833;-65
2021/09/27 11:14:43;;;;;;;10.27;7.82;;;21.40;86.30;;;;;;4863961;29;20055;-66
2021/09/27 11:17:30;;;;;;;9.95;7.22;;;21.60;86.00;;;;;;4868200;29;20037;-66
2021/09/27 11:20:35;;;;;;;9.88;8.15;;;21.60;85.90;;;;;;4861636;29;20081;-66
2021/09/27 11:23:28;;;;;;;8.60;7.25;;;21.70;84.00;;;;;;4864323;29;20124;-65
2021/09/27 11:26:15;;;;;;;9.25;7.00;;;21.70;85.20;;;;;;4859441;29;20064;-65
2021/09/27 11:29:11;;;;;;;7.90;6.93;;;21.70;85.80;;;;;;4882581;29;20231;-65
2021/09/27 11:31:41;;;;;;;8.35;7.43;;;21.80;84.70;;;;;;4879219;29;20561;-67
2021/09/27 11:34:31;;;;;;;11.20;8.23;;;21.90;84.20;;;;;;4866210;29;20141;-67
2021/09/27 11:37:31;;;;;;;10.35;7.70;;;21.80;84.80;;;;;;4858870;29;20578;-70
2021/09/27 11:40:06;;;;;;;10.55;7.90;;;21.70;84.90;;;;;;4861709;29;20036;-68
2021/09/27 11:42:37;;;;;;;8.45;7.55;;;21.80;85.10;;;;;;4864598;29;20029;-68
2021/09/27 11:45:25;;;;;;;8.95;6.88;;;21.90;84.60;;;;;;4863718;29;20040;-68
2021/09/27 11:48:12;;;;;;;9.20;6.35;;;22.00;85.10;;;;;;4867257;29;20537;-68
2021/09/27 11:50:51;;;;;;;8.55;7.10;;;22.00;83.00;;;;;;4864614;29;20438;-68
2021/09/27 11:53:29;;;;;;;8.85;7.65;;;22.00;83.40;;;;;;4865586;29;20044;-68
2021/09/27 11:56:00;;;;;;;8.68;7.82;;;22.00;83.70;;;;;;4859431;29;20041;-68
2021/09/27 11:58:31;;;;;;;9.15;8.25;;;22.10;82.90;;;;;;4857910;29;20569;-68
2021/09/27 12:01:05;;;;;;;9.70;7.65;;;22.20;82.60;;;;;;4861455;29;20052;-68
2021/09/27 12:03:48;;;;;;;9.93;8.20;;;22.20;82.20;;;;;;4862568;29;20037;-68
2021/09/27 12:06:20;;;;;;;10.10;8.23;;;22.10;81.70;;;;;;4853722;29;20033;-69
2021/09/27 12:09:14;;;;;;;9.85;8.23;;;22.10;82.80;;;;;;4867650;29;20109;-69
2021/09/27 12:11:53;;;;;;;8.85;7.95;;;22.10;81.70;;;;;;4858070;29;20120;-68
2021/09/27 12:14:22;;;;;;;10.25;8.73;;;22.10;82.00;;;;;;4862003;29;20049;-68
2021/09/27 12:16:50;;;;;;;10.45;8.70;;;22.10;82.30;;;;;;4861788;29;20045;-69
2021/09/27 12:19:16;;;;;;;11.40;8.85;;;22.10;81.90;;;;;;4861099;29;20047;-68
2021/09/27 12:21:46;;;;;;;15.13;11.00;;;22.20;82.90;;;;;;4866998;29;20037;-68
2021/09/27 12:24:16;;;;;;;10.88;8.57;;;22.20;82.90;;;;;;4869120;29;20516;-68
2021/09/27 12:26:45;;;;;;;16.08;11.80;;;22.30;82.20;;;;;;4863428;29;20044;-68
2021/09/27 12:29:13;;;;;;;14.80;11.45;;;22.20;81.40;;;;;;4871614;29;20033;-68
2021/09/27 12:32:07;;;;;;;14.65;12.10;;;22.30;81.90;;;;;;4867581;29;20060;-68
2021/09/27 12:34:48;;;;;;;19.75;12.18;;;22.40;82.10;;;;;;4859778;29;20124;-68
2021/09/27 12:37:17;;;;;;;10.48;9.07;;;22.40;81.60;;;;;;4862810;29;20033;-69
2021/09/27 12:39:45;;;;;;;13.55;10.90;;;22.40;81.60;;;;;;4859008;29;20096;-68
2021/09/27 12:42:22;;;;;;;15.35;12.82;;;22.50;81.80;;;;;;4859033;29;20037;-69
2021/09/27 12:45:11;;;;;;;14.52;10.70;;;22.50;80.70;;;;;;4873975;29;20029;-68
2021/09/27 12:47:38;;;;;;;16.50;13.05;;;22.50;81.80;;;;;;4863312;29;20459;-69
2021/09/27 12:50:07;;;;;;;14.57;12.15;;;22.50;81.60;;;;;;4849045;29;20085;-69
2021/09/27 12:52:52;;;;;;;15.60;11.52;;;22.50;81.20;;;;;;4859283;29;20651;-69
2021/09/27 12:55:27;;;;;;;17.55;13.40;;;22.40;82.00;;;;;;4866948;29;20045;-69
2021/09/27 12:57:56;;;;;;;13.38;11.25;;;22.40;82.10;;;;;;4861811;29;20041;-68
2021/09/27 13:00:35;;;;;;;12.07;10.68;;;22.40;82.30;;;;;;4867521;29;20123;-69
2021/09/27 13:03:07;;;;;;;13.18;10.73;;;22.40;82.70;;;;;;4865383;29;20037;-69
2021/09/27 13:06:11;;;;;;;14.38;10.65;;;22.50;81.20;;;;;;4866421;29;20128;-70
2021/09/27 13:08:47;;;;;;;10.90;9.38;;;22.40;81.60;;;;;;4861950;29;20047;-69
2021/09/27 13:11:44;;;;;;;12.18;10.55;;;22.40;81.10;;;;;;4863604;29;20040;-70
2021/09/27 13:14:29;;;;;;;10.30;9.20;;;22.30;82.40;;;;;;4856337;29;20110;-69
2021/09/27 13:17:09;;;;;;;12.25;10.52;;;22.30;82.70;;;;;;4863175;29;20101;-69
2021/09/27 13:19:39;;;;;;;10.60;9.60;;;22.30;82.90;;;;;;4863032;29;20041;-69
2021/09/27 13:22:11;;;;;;;10.93;9.70;;;22.20;83.40;;;;;;4855855;29;20033;-71
2021/09/27 13:24:39;;;;;;;12.25;10.60;;;22.10;82.90;;;;;;4868233;29;20037;-68
2021/09/27 13:27:22;;;;;;;15.82;12.82;;;22.10;82.80;;;;;;4859353;29;20111;-68
2021/09/27 13:29:50;;;;;;;10.48;9.45;;;22.10;83.80;;;;;;4855392;29;20064;-67
2021/09/27 13:32:20;;;;;;;11.27;9.07;;;22.20;81.70;;;;;;4865877;29;20033;-67
2021/09/27 13:34:56;;;;;;;11.60;10.35;;;22.20;81.10;;;;;;4855528;29;20857;-67
2021/09/27 13:37:29;;;;;;;11.30;9.60;;;22.20;81.20;;;;;;4864682;29;20053;-67